Time;durP1;ratioP1;P1;durP2;ratioP2;P2;SDS_P1;SDS_P2;PMS_P1;PMS_P2;Temp;Humidity;BMP_temperature;BMP_pressure;BME280_temperature;BME280_humidity;BME280_pressure;Samples;Min_cycle;Max_cycle;Signal;HPM_P1;HPM_P2
2024/02/16 00:01:14;;;;;;;9.70;8.00;;;;;;;9.91;84.30;98193.88;4957902;28;20123;-73
2024/02/16 00:03:40;;;;;;;8.48;7.55;;;;;;;9.88;84.32;98191.66;4984784;28;20029;-73
2024/02/16 00:06:06;;;;;;;7.50;6.70;;;;;;;9.89;84.50;98193.28;4953934;28;20035;-71
2024/02/16 00:08:34;;;;;;;8.55;7.10;;;;;;;9.77;84.48;98181.75;4984589;28;20039;-72
2024/02/16 00:11:00;;;;;;;10.25;7.90;;;;;;;9.82;84.93;98192.63;4984084;28;20035;-71
2024/02/16 00:13:25;;;;;;;8.45;7.53;;;;;;;9.78;85.00;98188.78;4952396;29;20496;-71
2024/02/16 00:15:50;;;;;;;10.95;7.93;;;;;;;9.73;85.51;98179.53;4968576;28;20035;-72
2024/02/16 00:18:16;;;;;;;10.82;7.47;;;;;;;9.70;85.01;98169.28;4953734;28;20066;-71
2024/02/16 00:20:41;;;;;;;8.02;7.22;;;;;;;9.82;85.06;98187.25;4957356;28;20030;-71
2024/02/16 00:23:06;;;;;;;10.55;7.30;;;;;;;9.81;85.29;98186.41;4969655;28;20134;-70
2024/02/16 00:25:32;;;;;;;11.25;7.80;;;;;;;9.67;85.27;98185.88;4953342;29;20043;-75
2024/02/16 00:27:58;;;;;;;13.30;8.00;;;;;;;9.78;85.84;98207.59;4985086;28;20031;-72
2024/02/16 00:30:24;;;;;;;10.85;8.43;;;;;;;9.76;86.85;98199.75;4952198;29;20043;-73
2024/02/16 00:32:49;;;;;;;8.70;7.65;;;;;;;9.78;86.81;98207.59;4947898;28;20082;-72
2024/02/16 00:35:16;;;;;;;10.88;8.50;;;;;;;9.73;87.15;98184.91;4953259;28;20042;-74
2024/02/16 00:37:41;;;;;;;11.55;8.25;;;;;;;9.88;86.42;98194.34;4983867;28;20027;-74
2024/02/16 00:40:07;;;;;;;11.48;8.68;;;;;;;9.79;86.52;98185.03;4984344;28;20054;-69
2024/02/16 00:42:33;;;;;;;11.18;8.82;;;;;;;9.74;86.52;98178.50;4953315;28;20024;-72
2024/02/16 00:45:01;;;;;;;10.52;8.10;;;;;;;9.78;86.36;98175.34;4984378;28;20484;-71
2024/02/16 00:47:29;;;;;;;9.68;8.68;;;;;;;9.82;86.32;98181.84;4949109;28;20035;-75
2024/02/16 00:49:55;;;;;;;11.05;8.77;;;;;;;9.87;86.05;98179.28;4953277;28;20042;-72
2024/02/16 00:52:22;;;;;;;11.25;8.10;;;;;;;9.91;86.22;98191.19;4984054;28;20050;-72
2024/02/16 00:54:48;;;;;;;9.55;7.80;;;;;;;9.88;86.05;98208.59;4952168;29;20047;-74
2024/02/16 00:57:14;;;;;;;9.07;7.63;;;;;;;9.77;86.03;98189.81;4983915;28;20034;-72
2024/02/16 00:59:40;;;;;;;10.63;9.05;;;;;;;9.65;86.48;98198.75;4945317;29;20039;-74
2024/02/16 01:02:05;;;;;;;9.75;8.63;;;;;;;9.70;86.39;98209.63;4951953;28;20129;-75
2024/02/16 01:04:30;;;;;;;10.48;8.45;;;;;;;9.65;86.20;98198.75;4953195;28;20053;-74
2024/02/16 01:06:56;;;;;;;12.30;8.98;;;;;;;9.70;86.17;98206.94;4967737;28;20027;-76
2024/02/16 01:09:21;;;;;;;9.75;8.32;;;;;;;9.72;86.25;98206.69;4956698;28;20043;-73
2024/02/16 01:11:47;;;;;;;10.40;8.23;;;;;;;9.70;86.30;98201.56;4956684;28;20036;-73
2024/02/16 01:14:12;;;;;;;10.18;8.07;;;;;;;9.70;86.32;98201.56;4971557;28;20522;-73
2024/02/16 01:16:38;;;;;;;11.15;7.60;;;;;;;9.69;86.23;98199.91;4956501;28;20070;-73
2024/02/16 01:19:05;;;;;;;8.63;7.55;;;;;;;9.71;86.29;98203.16;4955339;28;20038;-72
2024/02/16 01:21:30;;;;;;;8.60;7.70;;;;;;;9.74;86.53;98191.13;4956510;28;20031;-73
2024/02/16 01:23:59;;;;;;;11.10;7.70;;;;;;;9.71;86.40;98192.41;4956457;28;20042;-73
2024/02/16 01:26:24;;;;;;;8.73;7.07;;;;;;;9.70;86.57;98193.47;4987958;28;20090;-73
2024/02/16 01:28:50;;;;;;;10.05;7.53;;;;;;;9.71;86.37;98192.41;4977732;28;20137;-73
2024/02/16 01:31:15;;;;;;;9.48;7.25;;;;;;;9.58;86.84;98173.88;4987332;28;20061;-73
2024/02/16 01:33:41;;;;;;;7.78;6.95;;;;;;;9.71;86.75;98187.03;4956513;28;20748;-73
2024/02/16 01:36:06;;;;;;;8.45;7.50;;;;;;;9.64;86.43;98183.66;4954804;28;20543;-73
2024/02/16 01:38:31;;;;;;;9.50;7.18;;;;;;;9.73;86.99;98192.19;4956250;28;20043;-74
2024/02/16 01:40:57;;;;;;;8.48;7.00;;;;;;;9.73;86.49;98184.91;4995483;28;20491;-73
2024/02/16 01:43:22;;;;;;;9.45;7.20;;;;;;;9.67;86.65;98175.13;4955064;29;20047;-74
2024/02/16 01:45:48;;;;;;;9.40;7.03;;;;;;;9.70;86.86;98174.66;4970830;28;20118;-73
2024/02/16 01:48:14;;;;;;;7.90;7.20;;;;;;;9.71;86.74;98165.53;4987269;28;20035;-71
2024/02/16 01:50:42;;;;;;;10.30;6.95;;;;;;;9.72;86.98;98166.34;4970079;28;20063;-73
2024/02/16 01:53:08;;;;;;;9.32;7.20;;;;;;;9.69;87.16;98166.81;4987080;28;20087;-72
2024/02/16 01:55:33;;;;;;;11.18;7.22;;;;;;;9.68;86.81;98171.38;4986860;28;20039;-72
2024/02/16 01:57:59;;;;;;;7.70;6.68;;;;;;;9.68;87.24;98165.19;4976682;28;20093;-72
2024/02/16 02:00:25;;;;;;;8.25;7.00;;;;;;;9.58;87.25;98149.69;4971471;28;20064;-72
2024/02/16 02:02:52;;;;;;;11.43;7.85;;;;;;;9.61;87.06;98149.19;4954619;29;20071;-73
2024/02/16 02:05:17;;;;;;;9.05;7.60;;;;;;;9.60;86.80;98147.56;4955714;29;20502;-71
2024/02/16 02:07:43;;;;;;;9.55;8.13;;;;;;;9.63;87.02;98157.84;4986692;28;20122;-72
2024/02/16 02:10:12;;;;;;;10.23;9.00;;;;;;;9.49;87.29;98159.19;4986363;28;20055;-72
2024/02/16 02:12:37;;;;;;;13.63;8.75;;;;;;;9.40;87.29;98157.91;4938806;29;20039;-70
2024/02/16 02:15:04;;;;;;;10.23;9.02;;;;;;;9.39;87.66;98156.28;4955674;28;20089;-70
2024/02/16 02:17:30;;;;;;;10.88;7.97;;;;;;;9.36;87.89;98161.31;4954188;29;20045;-70
2024/02/16 02:19:55;;;;;;;11.48;8.63;;;;;;;9.24;88.18;98155.94;4969221;28;20110;-72
2024/02/16 02:22:21;;;;;;;10.23;8.38;;;;;;;9.25;88.17;98154.06;4970355;28;20039;-73
2024/02/16 02:24:48;;;;;;;9.50;8.27;;;;;;;9.30;88.11;98155.00;4954342;28;20050;-72
2024/02/16 02:27:14;;;;;;;10.60;8.40;;;;;;;9.33;88.03;98157.22;4949078;29;20057;-72
2024/02/16 02:29:40;;;;;;;11.63;8.35;;;;;;;9.22;88.46;98150.00;4947609;29;20031;-70
2024/02/16 02:32:06;;;;;;;9.90;8.90;;;;;;;9.06;88.97;98148.03;4986151;28;20476;-73
2024/02/16 02:34:31;;;;;;;11.82;8.77;;;;;;;9.12;88.51;98144.41;4954087;29;20030;-72
2024/02/16 02:36:57;;;;;;;9.82;8.55;;;;;;;9.16;88.54;98134.00;4985971;28;20074;-73
2024/02/16 02:39:22;;;;;;;9.45;7.88;;;;;;;9.19;88.12;98129.00;4937997;29;20070;-71
2024/02/16 02:41:48;;;;;;;9.70;8.70;;;;;;;9.19;88.86;98112.88;4962452;28;20479;-71
2024/02/16 02:44:13;;;;;;;11.82;8.50;;;;;;;9.29;88.73;98129.19;4955136;28;20042;-72
2024/02/16 02:46:39;;;;;;;10.93;8.55;;;;;;;9.31;88.73;98127.06;4953838;29;20047;-72
2024/02/16 02:49:04;;;;;;;26.15;17.25;;;;;;;9.21;88.87;98121.50;4955103;28;20027;-72
2024/02/16 02:51:30;;;;;;;38.35;21.98;;;;;;;9.32;89.19;98128.72;4937642;29;20054;-72
2024/02/16 02:53:55;;;;;;;25.70;16.10;;;;;;;9.31;88.76;98121.69;4954644;28;20026;-71
2024/02/16 02:56:20;;;;;;;16.73;11.40;;;;;;;9.26;89.14;98108.19;4959745;28;20054;-72
2024/02/16 02:58:46;;;;;;;10.25;8.88;;;;;;;9.29;88.63;98107.69;4980066;28;20059;-72
2024/02/16 03:01:12;;;;;;;9.95;7.95;;;;;;;9.25;88.92;98119.97;4969660;28;20031;-74
2024/02/16 03:03:38;;;;;;;8.98;7.53;;;;;;;9.18;89.37;98121.97;4969348;28;20045;-71
2024/02/16 03:06:05;;;;;;;9.52;8.55;;;;;;;9.22;89.06;98128.50;4985240;28;20480;-71
2024/02/16 03:08:30;;;;;;;12.10;8.90;;;;;;;9.27;89.20;98120.53;4956412;28;20431;-69
2024/02/16 03:10:55;;;;;;;10.43;8.80;;;;;;;9.17;89.06;98114.94;4974835;28;20035;-70
2024/02/16 03:13:21;;;;;;;10.05;8.23;;;;;;;9.17;88.95;98114.94;4954174;28;20031;-71
2024/02/16 03:15:46;;;;;;;9.30;8.23;;;;;;;9.15;89.22;98111.69;4952935;29;20039;-72
2024/02/16 03:18:11;;;;;;;11.60;9.23;;;;;;;9.12;89.39;98114.88;4954267;28;20090;-71
2024/02/16 03:20:37;;;;;;;11.43;8.75;;;;;;;9.11;89.42;98115.91;4954148;28;20054;-72
2024/02/16 03:23:03;;;;;;;10.85;9.55;;;;;;;9.07;89.49;98106.69;4954173;28;20113;-72
2024/02/16 03:25:28;;;;;;;14.43;10.20;;;;;;;9.08;89.52;98115.59;4937050;29;20522;-72
2024/02/16 03:27:54;;;;;;;11.32;9.50;;;;;;;9.05;89.52;98119.56;4982014;28;20027;-72
2024/02/16 03:30:19;;;;;;;11.10;8.93;;;;;;;9.11;89.78;98126.66;4952597;28;20045;-72
2024/02/16 03:32:49;;;;;;;8.95;7.85;;;;;;;9.22;89.24;98131.19;4984977;28;20027;-72
2024/02/16 03:35:15;;;;;;;10.02;8.48;;;;;;;9.26;89.00;98135.06;4992817;28;20542;-72
2024/02/16 03:37:40;;;;;;;11.02;8.40;;;;;;;9.22;89.19;98135.75;4952293;28;20027;-72
2024/02/16 03:40:07;;;;;;;8.63;7.82;;;;;;;9.13;88.86;98113.81;4952596;28;20035;-72
2024/02/16 03:42:33;;;;;;;11.07;8.82;;;;;;;9.31;89.13;98137.81;4987177;28;20022;-73
2024/02/16 03:44:58;;;;;;;25.17;17.73;;;;;;;9.23;88.70;98130.16;4974106;28;20040;-74
2024/02/16 03:47:23;;;;;;;20.98;15.45;;;;;;;9.34;89.02;98147.28;4954748;28;20479;-72
2024/02/16 03:49:49;;;;;;;17.17;12.10;;;;;;;9.35;89.04;98138.19;4943202;29;20043;-73
2024/02/16 03:52:14;;;;;;;10.05;9.05;;;;;;;9.33;88.90;98126.84;4984679;28;20054;-73
2024/02/16 03:54:39;;;;;;;11.98;9.02;;;;;;;9.41;89.14;98142.59;4952531;28;20547;-71
2024/02/16 03:57:09;;;;;;;13.63;9.32;;;;;;;9.45;88.75;98149.13;4953248;28;20034;-71
2024/02/16 03:59:34;;;;;;;10.13;9.13;;;;;;;9.37;89.03;98136.06;4952459;29;20062;-71
2024/02/16 04:02:00;;;;;;;11.95;10.25;;;;;;;9.42;88.74;98145.06;4975970;28;20391;-73
2024/02/16 04:04:26;;;;;;;11.13;9.70;;;;;;;9.46;88.74;98142.69;4953432;28;20487;-72
2024/02/16 04:06:52;;;;;;;13.07;10.30;;;;;;;9.45;88.97;98144.56;4967659;28;20499;-72
2024/02/16 04:09:17;;;;;;;10.55;9.43;;;;;;;9.49;88.54;98134.97;4972536;28;20031;-72
2024/02/16 04:11:43;;;;;;;11.73;9.77;;;;;;;9.52;88.45;98139.84;4959608;28;20618;-72
2024/02/16 04:14:08;;;;;;;9.23;7.90;;;;;;;9.49;88.41;98143.03;4984295;28;20062;-72
2024/02/16 04:16:34;;;;;;;9.82;8.88;;;;;;;9.47;88.57;98150.53;4951786;29;20495;-72
2024/02/16 04:18:59;;;;;;;11.85;8.95;;;;;;;9.42;88.72;98134.31;4953229;28;20027;-72
2024/02/16 04:21:24;;;;;;;16.52;10.48;;;;;;;9.34;88.38;98131.16;4951879;29;20487;-70
2024/02/16 04:23:50;;;;;;;13.80;11.27;;;;;;;9.36;88.63;98146.00;4953113;28;20050;-71
2024/02/16 04:26:15;;;;;;;15.38;12.55;;;;;;;9.30;88.35;98141.56;4952662;28;20400;-72
2024/02/16 04:28:40;;;;;;;18.17;12.77;;;;;;;9.31;88.39;98137.81;4946474;28;20098;-70
2024/02/16 04:31:06;;;;;;;21.80;17.08;;;;;;;9.26;88.38;98129.69;4953133;28;20030;-73
2024/02/16 04:33:31;;;;;;;12.57;10.90;;;;;;;9.17;88.58;98131.06;4984122;28;20094;-73
2024/02/16 04:35:56;;;;;;;16.92;13.13;;;;;;;9.28;88.51;98143.69;4948968;28;20028;-71
2024/02/16 04:38:22;;;;;;;17.52;14.38;;;;;;;9.30;88.48;98146.94;4957538;28;20043;-72
2024/02/16 04:40:47;;;;;;;15.75;12.35;;;;;;;9.33;88.22;98133.06;4953045;28;20110;-72
2024/02/16 04:43:13;;;;;;;16.58;12.52;;;;;;;9.34;88.59;98134.66;4954961;28;20110;-72
2024/02/16 04:45:38;;;;;;;11.82;10.25;;;;;;;9.36;88.27;98129.88;4956692;28;20501;-71
2024/02/16 04:48:07;;;;;;;11.25;9.77;;;;;;;9.39;88.25;98134.78;4956984;28;20144;-74
2024/02/16 04:50:33;;;;;;;13.23;10.75;;;;;;;9.41;88.39;98137.22;4987723;28;20043;-71
2024/02/16 04:52:59;;;;;;;11.10;9.93;;;;;;;9.40;88.36;98141.78;4988031;28;20035;-73
2024/02/16 04:55:24;;;;;;;11.30;10.07;;;;;;;9.43;88.31;98143.16;4971712;28;20394;-73
2024/02/16 04:57:49;;;;;;;11.38;9.93;;;;;;;9.26;88.45;98118.94;4956610;28;20479;-74
2024/02/16 05:00:15;;;;;;;11.73;9.77;;;;;;;9.34;88.35;98131.97;4987784;28;20023;-72
2024/02/16 05:02:40;;;;;;;9.10;8.07;;;;;;;9.39;88.06;98133.94;4955453;29;20041;-71
2024/02/16 05:05:06;;;;;;;9.02;8.15;;;;;;;9.35;88.23;98119.38;4955361;29;20054;-71
2024/02/16 05:07:31;;;;;;;9.80;8.85;;;;;;;9.32;88.20;98117.97;4956133;28;20510;-70
2024/02/16 05:09:58;;;;;;;10.90;9.02;;;;;;;9.34;88.31;98115.03;4956516;28;20042;-71
2024/02/16 05:12:24;;;;;;;10.02;9.13;;;;;;;9.12;88.75;98092.56;4955101;29;20439;-72
2024/02/16 05:14:50;;;;;;;10.38;9.27;;;;;;;9.35;88.70;98139.00;4955083;28;20035;-71
2024/02/16 05:17:15;;;;;;;9.30;8.38;;;;;;;9.31;88.97;98148.56;4938905;29;20035;-72
2024/02/16 05:19:41;;;;;;;12.77;8.38;;;;;;;9.28;88.99;98138.31;4956333;28;20498;-72
2024/02/16 05:22:06;;;;;;;10.32;9.32;;;;;;;9.36;88.66;98151.38;4956309;28;20034;-73
2024/02/16 05:24:32;;;;;;;10.93;9.82;;;;;;;9.33;88.77;98148.34;4963733;28;20522;-73
2024/02/16 05:26:58;;;;;;;10.68;9.77;;;;;;;9.33;88.81;98149.16;4963577;28;20089;-74
2024/02/16 05:29:23;;;;;;;10.32;9.32;;;;;;;9.34;88.80;98153.47;4958390;28;20079;-73
2024/02/16 05:31:51;;;;;;;13.02;10.23;;;;;;;9.29;88.27;98141.81;4954880;29;20045;-73
2024/02/16 05:34:16;;;;;;;12.35;11.05;;;;;;;9.34;88.58;98148.09;4987061;28;20102;-73
2024/02/16 05:36:42;;;;;;;15.50;13.88;;;;;;;9.33;88.68;98146.50;4987041;28;20035;-73
2024/02/16 05:39:20;;;;;;;23.50;16.90;;;;;;;9.26;88.60;98135.06;4955706;28;20471;-70
2024/02/16 05:41:48;;;;;;;19.90;17.15;;;;;;;9.33;88.59;98141.09;4951892;28;20031;-71
2024/02/16 05:44:13;;;;;;;19.55;15.95;;;;;;;9.23;88.54;98135.50;4955403;28;20475;-71
2024/02/16 05:46:39;;;;;;;15.38;12.75;;;;;;;9.24;89.06;98142.50;4954259;29;20046;-72
2024/02/16 05:49:04;;;;;;;15.63;13.60;;;;;;;9.26;88.71;98145.81;4954372;28;20023;-70
2024/02/16 05:51:37;;;;;;;31.65;23.60;;;;;;;9.24;88.92;98147.88;4957672;28;20476;-70
2024/02/16 05:54:03;;;;;;;26.55;21.52;;;;;;;9.18;88.98;98134.59;4949424;28;20145;-72
2024/02/16 05:56:28;;;;;;;28.45;21.98;;;;;;;9.24;88.78;98155.94;4954250;29;20067;-72
2024/02/16 05:58:54;;;;;;;28.05;24.95;;;;;;;9.17;88.94;98147.19;4970237;28;20047;-72
2024/02/16 06:01:19;;;;;;;29.73;21.80;;;;;;;9.15;89.17;98138.56;4954198;28;20038;-72
2024/02/16 06:03:44;;;;;;;23.52;20.45;;;;;;;9.23;88.82;98154.31;4986653;28;20047;-70
2024/02/16 06:06:10;;;;;;;20.25;16.70;;;;;;;9.14;88.76;98138.81;4955301;28;20618;-73
2024/02/16 06:08:35;;;;;;;40.85;34.55;;;;;;;9.19;88.94;98163.91;4955580;28;20046;-73
2024/02/16 06:11:01;;;;;;;26.05;22.52;;;;;;;9.14;88.77;98174.56;4955304;28;20031;-72
2024/02/16 06:13:27;;;;;;;23.13;18.98;;;;;;;8.90;89.62;98162.19;4938365;29;20263;-72
2024/02/16 06:15:53;;;;;;;17.65;15.73;;;;;;;8.94;89.41;98166.84;4937795;29;20031;-71
2024/02/16 06:18:19;;;;;;;24.05;20.00;;;;;;;9.04;89.39;98188.56;4970229;28;20488;-72
2024/02/16 06:20:45;;;;;;;16.52;14.65;;;;;;;8.98;89.57;98186.00;4986269;28;20027;-72
2024/02/16 06:23:10;;;;;;;11.95;10.75;;;;;;;8.94;89.70;98179.44;4978287;28;20043;-72
2024/02/16 06:25:36;;;;;;;18.33;14.32;;;;;;;9.07;89.68;98189.97;4970100;28;20038;-72
2024/02/16 06:28:02;;;;;;;18.95;15.88;;;;;;;8.92;89.62;98149.34;4970177;28;20039;-72
2024/02/16 06:30:28;;;;;;;20.73;16.80;;;;;;;9.15;89.56;98186.91;4954165;29;20387;-72
2024/02/16 06:32:54;;;;;;;19.42;16.40;;;;;;;9.09;89.12;98171.75;4955115;28;20035;-72
2024/02/16 06:35:20;;;;;;;17.50;15.70;;;;;;;9.21;89.29;98186.00;4985739;28;20023;-72
2024/02/16 06:37:45;;;;;;;19.08;15.82;;;;;;;9.20;89.44;98173.59;4969753;28;20047;-72
2024/02/16 06:40:11;;;;;;;20.63;18.63;;;;;;;9.18;89.70;98170.34;4955178;28;20035;-71
2024/02/16 06:42:38;;;;;;;33.13;30.23;;;;;;;9.17;89.65;98168.69;4955290;28;20065;-71
2024/02/16 06:45:05;;;;;;;30.00;27.33;;;;;;;9.22;89.43;98170.69;4986021;28;20030;-72
2024/02/16 06:47:31;;;;;;;20.27;18.33;;;;;;;9.20;89.17;98172.78;4985285;28;20503;-72
2024/02/16 06:49:56;;;;;;;15.40;13.82;;;;;;;9.19;89.38;98163.91;4957642;28;20082;-71
2024/02/16 06:52:21;;;;;;;14.05;12.55;;;;;;;9.26;89.39;98175.34;4953003;29;20039;-72
2024/02/16 06:54:47;;;;;;;12.80;11.50;;;;;;;9.24;89.24;98166.69;4969556;28;20019;-72
2024/02/16 06:57:12;;;;;;;10.45;9.35;;;;;;;9.31;88.84;98180.81;4954523;28;20031;-71
2024/02/16 06:59:37;;;;;;;10.30;8.50;;;;;;;9.31;89.34;98180.81;4954836;28;20498;-72
2024/02/16 07:02:03;;;;;;;10.30;8.07;;;;;;;9.36;89.09;98178.25;4954780;28;20122;-72
2024/02/16 07:04:28;;;;;;;10.32;9.32;;;;;;;9.40;89.37;98184.78;4954659;28;20027;-72
2024/02/16 07:06:54;;;;;;;11.13;10.13;;;;;;;9.39;89.13;98183.16;4984940;28;20070;-72
2024/02/16 07:09:21;;;;;;;12.35;9.65;;;;;;;9.15;89.01;98133.19;4954646;28;20496;-71
2024/02/16 07:11:49;;;;;;;11.82;10.38;;;;;;;9.47;89.08;98184.66;4954384;28;20070;-72
2024/02/16 07:14:15;;;;;;;12.95;10.25;;;;;;;9.42;88.88;98182.69;4979250;28;20161;-71
2024/02/16 07:16:40;;;;;;;17.17;15.57;;;;;;;9.46;88.72;98183.00;4951180;28;20071;-72
2024/02/16 07:19:06;;;;;;;18.55;15.82;;;;;;;9.44;89.08;98185.94;4937032;29;20391;-72
2024/02/16 07:21:31;;;;;;;16.75;15.15;;;;;;;9.47;88.62;98181.97;4937149;28;20047;-71
2024/02/16 07:23:57;;;;;;;16.58;15.00;;;;;;;9.40;88.71;98168.66;4952921;28;20015;-71
2024/02/16 07:26:22;;;;;;;13.23;11.93;;;;;;;9.51;88.49;98197.38;4952765;29;20093;-72
2024/02/16 07:28:48;;;;;;;14.23;12.73;;;;;;;9.54;89.00;98188.03;4937020;29;20133;-72
2024/02/16 07:31:14;;;;;;;13.95;12.60;;;;;;;9.55;88.31;98186.97;4986679;28;20074;-74
2024/02/16 07:33:39;;;;;;;14.27;12.88;;;;;;;9.62;88.39;98204.59;4951657;29;20027;-74
2024/02/16 07:36:05;;;;;;;14.38;12.98;;;;;;;9.60;88.63;98217.47;4953494;28;20110;-71
2024/02/16 07:38:30;;;;;;;14.60;12.30;;;;;;;9.41;89.08;98205.22;4962438;28;20028;-72
2024/02/16 07:40:56;;;;;;;13.65;12.35;;;;;;;9.44;88.86;98207.44;4947865;29;20027;-72
2024/02/16 07:43:23;;;;;;;14.15;12.65;;;;;;;9.54;89.06;98226.50;4952377;28;20062;-72
2024/02/16 07:45:49;;;;;;;15.63;13.07;;;;;;;9.65;88.62;98233.72;4933800;29;20043;-70
2024/02/16 07:48:15;;;;;;;14.63;13.15;;;;;;;9.62;88.87;98218.03;4952226;28;20031;-72
2024/02/16 07:50:41;;;;;;;14.00;12.48;;;;;;;9.74;88.51;98218.00;4984596;28;20043;-73
2024/02/16 07:53:06;;;;;;;25.40;21.40;;;;;;;9.75;88.57;98207.00;4968608;28;20089;-73
2024/02/16 07:55:32;;;;;;;41.85;27.05;;;;;;;9.79;88.56;98207.34;4982008;28;20123;-72
2024/02/16 07:57:57;;;;;;;36.47;26.38;;;;;;;9.83;88.18;98199.63;4936107;29;20019;-73
2024/02/16 08:00:23;;;;;;;32.65;22.60;;;;;;;10.00;88.35;98211.25;4936244;29;20317;-73
2024/02/16 08:02:48;;;;;;;23.55;17.92;;;;;;;10.10;88.37;98217.66;4953324;29;20023;-72
2024/02/16 08:05:13;;;;;;;25.27;16.77;;;;;;;10.11;87.91;98207.69;4968120;28;20164;-71
2024/02/16 08:07:42;;;;;;;34.08;17.80;;;;;;;10.20;87.85;98206.28;4951625;29;20031;-72
2024/02/16 08:10:08;;;;;;;32.35;18.58;;;;;;;10.30;88.20;98209.16;4968137;28;20045;-73
2024/02/16 08:12:35;;;;;;;18.27;13.18;;;;;;;10.32;87.58;98215.09;4968435;28;20027;-73
2024/02/16 08:15:01;;;;;;;12.80;10.52;;;;;;;10.45;87.69;98217.50;4953485;28;20092;-72
2024/02/16 08:17:26;;;;;;;11.20;9.30;;;;;;;10.44;87.50;98207.78;4951207;28;20027;-73
2024/02/16 08:19:58;;;;;;;13.38;11.07;;;;;;;10.50;87.42;98222.16;4984490;28;20047;-72
2024/02/16 08:22:23;;;;;;;21.67;16.80;;;;;;;10.41;87.61;98202.88;4953469;28;20043;-73
2024/02/16 08:24:49;;;;;;;17.15;14.57;;;;;;;10.50;87.07;98196.06;4953468;28;20158;-72
2024/02/16 08:27:16;;;;;;;16.23;14.50;;;;;;;10.70;86.90;98209.84;4953154;28;20085;-73
2024/02/16 08:29:42;;;;;;;15.07;12.65;;;;;;;10.73;86.86;98197.78;4968250;28;20034;-73
2024/02/16 08:32:08;;;;;;;12.38;11.13;;;;;;;10.90;86.78;98210.16;4983182;28;20039;-72
2024/02/16 08:34:36;;;;;;;12.98;11.40;;;;;;;10.98;86.10;98209.78;4983911;28;20400;-73
2024/02/16 08:37:03;;;;;;;13.25;10.30;;;;;;;11.08;85.80;98207.19;4983340;28;20049;-72
2024/02/16 08:39:29;;;;;;;14.30;12.80;;;;;;;11.16;85.72;98205.16;4936108;29;20027;-73
2024/02/16 08:41:55;;;;;;;11.18;9.90;;;;;;;11.13;85.07;98189.50;4953181;28;20078;-73
2024/02/16 08:44:21;;;;;;;12.63;8.48;;;;;;;11.29;85.13;98208.34;4951863;29;20054;-73
2024/02/16 08:46:48;;;;;;;8.65;7.75;;;;;;;11.21;84.62;98181.78;4983045;28;20492;-72
2024/02/16 08:49:14;;;;;;;9.02;7.68;;;;;;;11.51;84.03;98213.72;4953108;28;20082;-73
2024/02/16 08:51:39;;;;;;;9.30;7.68;;;;;;;11.60;83.88;98218.44;4956603;28;20499;-72
2024/02/16 08:54:04;;;;;;;12.40;8.20;;;;;;;11.57;83.16;98207.34;4951261;28;20463;-74
2024/02/16 08:56:30;;;;;;;9.85;7.57;;;;;;;11.67;83.00;98218.25;4951438;29;20049;-72
2024/02/16 08:58:56;;;;;;;13.32;7.30;;;;;;;11.82;82.63;98233.84;4965757;28;20049;-73
2024/02/16 09:01:38;;;;;;;15.80;8.13;;;;;;;11.85;82.46;98230.66;4969641;28;20045;-72
2024/02/16 09:04:04;;;;;;;8.38;7.07;;;;;;;11.88;82.38;98230.97;4962971;28;20041;-73
2024/02/16 09:06:30;;;;;;;10.18;6.88;;;;;;;11.95;82.46;98226.19;4951747;28;20031;-72
2024/02/16 09:08:55;;;;;;;11.82;6.78;;;;;;;12.03;82.12;98236.56;4966078;28;20509;-72
2024/02/16 09:11:21;;;;;;;6.05;5.45;;;;;;;12.04;81.76;98240.88;4966219;28;20043;-72
2024/02/16 09:13:47;;;;;;;10.93;5.63;;;;;;;11.99;81.19;98237.31;4951699;28;20043;-72
2024/02/16 09:16:12;;;;;;;8.27;6.53;;;;;;;11.94;80.93;98229.97;4951374;29;20023;-72
2024/02/16 09:18:38;;;;;;;8.65;6.20;;;;;;;11.94;80.56;98235.38;4935659;29;20122;-72
2024/02/16 09:21:03;;;;;;;8.75;5.63;;;;;;;11.87;80.03;98213.16;4952053;28;20464;-72
2024/02/16 09:23:29;;;;;;;9.55;7.10;;;;;;;11.91;79.28;98219.66;4952084;28;20118;-72
2024/02/16 09:25:54;;;;;;;8.80;7.10;;;;;;;12.03;78.93;98228.47;4951764;28;20054;-73
2024/02/16 09:28:20;;;;;;;9.77;8.63;;;;;;;12.02;79.40;98224.13;4934789;29;20113;-72
2024/02/16 09:30:46;;;;;;;9.88;7.55;;;;;;;12.06;78.33;98232.53;4970726;28;20031;-73
2024/02/16 09:33:11;;;;;;;8.93;6.75;;;;;;;12.11;78.35;98241.50;4939234;29;20031;-75
2024/02/16 09:35:38;;;;;;;13.55;8.43;;;;;;;12.09;77.77;98227.44;4987318;28;20402;-73
2024/02/16 09:38:03;;;;;;;14.23;11.00;;;;;;;12.20;77.44;98245.41;4956208;28;20052;-72
2024/02/16 09:40:29;;;;;;;10.07;8.98;;;;;;;12.10;77.23;98234.47;4956066;28;20446;-73
2024/02/16 09:42:54;;;;;;;9.65;7.30;;;;;;;12.20;77.10;98244.56;4955100;29;20042;-73
2024/02/16 09:45:20;;;;;;;9.65;6.75;;;;;;;12.27;77.01;98262.22;4987263;28;20054;-72
2024/02/16 09:47:49;;;;;;;11.00;6.82;;;;;;;12.37;76.51;98267.72;4966828;28;20039;-73
2024/02/16 09:50:15;;;;;;;10.05;7.32;;;;;;;12.32;76.76;98253.34;4986204;28;20019;-73
2024/02/16 09:52:40;;;;;;;8.32;7.18;;;;;;;12.34;76.86;98257.44;4947015;29;20046;-73
2024/02/16 09:55:10;;;;;;;11.40;7.20;;;;;;;12.42;76.49;98258.84;4986966;28;20031;-73
2024/02/16 09:57:35;;;;;;;7.80;7.03;;;;;;;12.39;76.40;98252.06;4938364;29;20043;-73
2024/02/16 10:00:03;;;;;;;8.60;6.78;;;;;;;12.53;75.89;98270.59;4954498;28;20031;-74
2024/02/16 10:02:44;;;;;;;10.55;8.02;;;;;;;12.62;75.90;98263.66;4955906;28;20062;-71
2024/02/16 10:05:12;;;;;;;9.15;8.00;;;;;;;12.71;75.66;98267.50;4985958;28;20751;-73
2024/02/16 10:07:38;;;;;;;10.23;8.52;;;;;;;12.71;74.89;98267.50;4970275;28;20027;-71
2024/02/16 10:10:04;;;;;;;11.32;9.40;;;;;;;12.78;74.78;98270.81;4986502;28;20446;-73
2024/02/16 10:12:29;;;;;;;11.55;9.13;;;;;;;12.80;74.31;98261.38;4957490;28;20130;-75
2024/02/16 10:14:56;;;;;;;9.75;8.38;;;;;;;12.86;74.69;98271.16;4972038;28;20039;-76
2024/02/16 10:17:21;;;;;;;11.68;9.05;;;;;;;12.92;74.05;98267.44;4938433;29;20023;-76
2024/02/16 10:19:55;;;;;;;9.75;8.73;;;;;;;12.87;73.87;98250.34;4970621;28;20510;-76
2024/02/16 10:22:22;;;;;;;10.73;8.10;;;;;;;12.86;74.25;98259.56;4970493;28;20034;-76
2024/02/16 10:24:50;;;;;;;10.88;8.90;;;;;;;12.92;74.16;98253.09;4954383;28;20070;-76
2024/02/16 10:27:16;;;;;;;14.43;9.77;;;;;;;13.10;73.83;98267.06;4955225;28;20039;-77
2024/02/16 10:29:45;;;;;;;12.13;8.88;;;;;;;13.00;73.79;98255.31;4954317;28;20023;-76
2024/02/16 10:32:11;;;;;;;12.60;8.40;;;;;;;13.04;73.76;98262.69;4970122;28;20578;-76
2024/02/16 10:34:39;;;;;;;12.07;8.57;;;;;;;13.08;73.35;98255.72;4953726;29;20023;-76
2024/02/16 10:37:04;;;;;;;13.30;8.27;;;;;;;13.13;73.59;98254.94;4955145;28;20045;-75
2024/02/16 10:39:30;;;;;;;12.15;9.73;;;;;;;13.28;73.58;98263.13;4938014;28;20031;-76
2024/02/16 10:41:57;;;;;;;12.30;8.82;;;;;;;13.39;73.31;98264.84;4953330;29;20075;-76
2024/02/16 10:44:22;;;;;;;10.30;9.02;;;;;;;13.40;73.76;98261.06;4938069;29;20026;-77
2024/02/16 10:46:48;;;;;;;11.43;8.75;;;;;;;13.47;73.57;98272.47;4969896;28;20510;-76
2024/02/16 10:49:13;;;;;;;11.85;8.80;;;;;;;13.36;73.31;98249.13;4937970;29;20031;-76
2024/02/16 10:51:43;;;;;;;10.52;8.15;;;;;;;13.57;73.04;98267.13;4937992;29;20042;-76
2024/02/16 10:54:09;;;;;;;12.27;9.10;;;;;;;13.63;72.95;98260.66;4986657;28;20463;-76
2024/02/16 10:56:36;;;;;;;11.55;8.32;;;;;;;13.65;72.75;98253.09;4958041;28;20039;-76
2024/02/16 10:59:09;;;;;;;11.48;8.60;;;;;;;13.82;73.10;98252.91;4937580;29;20031;-76
2024/02/16 11:01:39;;;;;;;14.38;8.65;;;;;;;13.77;72.84;98245.56;4937680;28;20046;-77
2024/02/16 11:04:09;;;;;;;13.52;8.88;;;;;;;13.91;72.38;98253.25;4953606;29;20114;-75
2024/02/16 11:06:48;;;;;;;14.98;8.90;;;;;;;14.03;71.94;98253.81;4953766;28;20051;-72
2024/02/16 11:09:30;;;;;;;10.60;8.23;;;;;;;14.08;71.89;98256.53;4954586;28;20039;-73
2024/02/16 11:12:00;;;;;;;10.98;8.10;;;;;;;14.19;72.38;98260.94;4985512;28;20038;-73
2024/02/16 11:14:36;;;;;;;15.82;8.60;;;;;;;14.31;71.77;98250.69;4953174;29;20043;-73
2024/02/16 11:17:02;;;;;;;11.73;8.30;;;;;;;14.31;71.33;98243.38;4959292;28;20030;-73
2024/02/16 11:19:29;;;;;;;11.43;8.38;;;;;;;14.45;71.49;98251.81;4970795;28;20030;-73
2024/02/16 11:21:58;;;;;;;11.73;7.75;;;;;;;14.46;71.32;98243.44;4938235;29;20108;-73
2024/02/16 11:24:32;;;;;;;13.20;8.23;;;;;;;14.59;70.87;98250.19;4951061;29;20049;-73